sensor_id;sensor_type;location;lat;lon;timestamp;pressure;altitude;pressure_sealevel;temperature;humidity
67740;BME280;54536;50.090;14.420;2023-05-20T00:01:42;100086.16;;;14.95;60.95
67740;BME280;54536;50.090;14.420;2023-05-20T00:04:08;100075.28;;;14.98;60.84
67740;BME280;54536;50.090;14.420;2023-05-20T00:06:34;100077.56;;;14.84;60.55
67740;BME280;54536;50.090;14.420;2023-05-20T00:09:00;100073.31;;;14.73;61.31
67740;BME280;54536;50.090;14.420;2023-05-20T00:11:27;100070.22;;;14.78;60.73
67740;BME280;54536;50.090;14.420;2023-05-20T00:13:53;100068.84;;;14.73;61.40
67740;BME280;54536;50.090;14.420;2023-05-20T00:16:19;100064.81;;;14.69;61.75
67740;BME280;54536;50.090;14.420;2023-05-20T00:18:45;100076.00;;;14.63;61.41
67740;BME280;54536;50.090;14.420;2023-05-20T00:21:12;100076.50;;;14.77;61.29
67740;BME280;54536;50.090;14.420;2023-05-20T00:23:38;100076.13;;;14.71;60.85
67740;BME280;54536;50.090;14.420;2023-05-20T00:26:04;100079.19;;;14.67;61.97
67740;BME280;54536;50.090;14.420;2023-05-20T00:28:30;100079.69;;;14.80;60.59
67740;BME280;54536;50.090;14.420;2023-05-20T00:30:56;100081.25;;;14.73;61.25
67740;BME280;54536;50.090;14.420;2023-05-20T00:33:23;100076.78;;;14.73;61.12
67740;BME280;54536;50.090;14.420;2023-05-20T00:35:49;100083.91;;;14.73;60.95
67740;BME280;54536;50.090;14.420;2023-05-20T00:38:15;100081.41;;;14.71;60.98
67740;BME280;54536;50.090;14.420;2023-05-20T00:40:41;100081.81;;;14.67;61.71
67740;BME280;54536;50.090;14.420;2023-05-20T00:43:08;100077.94;;;14.61;61.94
67740;BME280;54536;50.090;14.420;2023-05-20T00:45:36;100084.09;;;14.62;62.23
67740;BME280;54536;50.090;14.420;2023-05-20T00:48:03;100071.28;;;14.57;62.34
67740;BME280;54536;50.090;14.420;2023-05-20T00:50:31;100078.47;;;14.65;61.52
67740;BME280;54536;50.090;14.420;2023-05-20T00:52:57;100070.63;;;14.83;61.23
67740;BME280;54536;50.090;14.420;2023-05-20T00:55:24;100064.72;;;14.89;60.89
67740;BME280;54536;50.090;14.420;2023-05-20T00:57:52;100071.03;;;14.88;61.25
67740;BME280;54536;50.090;14.420;2023-05-20T01:00:19;100072.31;;;14.74;61.45
67740;BME280;54536;50.090;14.420;2023-05-20T01:02:45;100068.66;;;14.85;61.15
67740;BME280;54536;50.090;14.420;2023-05-20T01:05:12;100065.38;;;14.73;61.30
67740;BME280;54536;50.090;14.420;2023-05-20T01:07:38;100059.09;;;14.74;61.04
67740;BME280;54536;50.090;14.420;2023-05-20T01:10:05;100054.97;;;14.62;61.38
67740;BME280;54536;50.090;14.420;2023-05-20T01:12:39;100046.00;;;14.72;61.38
67740;BME280;54536;50.090;14.420;2023-05-20T01:15:10;100050.72;;;14.79;61.62
67740;BME280;54536;50.090;14.420;2023-05-20T01:17:43;100048.69;;;14.63;62.22
67740;BME280;54536;50.090;14.420;2023-05-20T01:20:13;100043.41;;;14.63;61.74
67740;BME280;54536;50.090;14.420;2023-05-20T01:22:52;100044.22;;;14.63;61.44
67740;BME280;54536;50.090;14.420;2023-05-20T01:25:20;100042.63;;;14.52;62.63
67740;BME280;54536;50.090;14.420;2023-05-20T01:27:51;100040.34;;;14.58;61.76
67740;BME280;54536;50.090;14.420;2023-05-20T01:30:18;100039.22;;;14.60;62.02
67740;BME280;54536;50.090;14.420;2023-05-20T01:32:58;100041.63;;;14.54;61.81
67740;BME280;54536;50.090;14.420;2023-05-20T01:35:27;100038.16;;;14.53;61.96
67740;BME280;54536;50.090;14.420;2023-05-20T01:37:56;100045.63;;;14.58;62.30
67740;BME280;54536;50.090;14.420;2023-05-20T01:40:24;100039.50;;;14.57;62.21
67740;BME280;54536;50.090;14.420;2023-05-20T01:42:54;100035.00;;;14.67;62.17
67740;BME280;54536;50.090;14.420;2023-05-20T01:45:23;100033.22;;;14.58;61.70
67740;BME280;54536;50.090;14.420;2023-05-20T01:47:50;100029.59;;;14.69;61.97
67740;BME280;54536;50.090;14.420;2023-05-20T01:50:16;100033.66;;;14.63;61.80
67740;BME280;54536;50.090;14.420;2023-05-20T01:52:42;100026.00;;;14.60;62.48
67740;BME280;54536;50.090;14.420;2023-05-20T01:55:09;100026.16;;;14.59;61.72
67740;BME280;54536;50.090;14.420;2023-05-20T01:57:35;100021.69;;;14.49;62.24
67740;BME280;54536;50.090;14.420;2023-05-20T02:00:01;100019.47;;;14.45;62.84
67740;BME280;54536;50.090;14.420;2023-05-20T02:02:28;100018.41;;;14.38;63.00
67740;BME280;54536;50.090;14.420;2023-05-20T02:04:55;100019.75;;;14.42;63.03
67740;BME280;54536;50.090;14.420;2023-05-20T02:07:21;100032.88;;;14.43;62.38
67740;BME280;54536;50.090;14.420;2023-05-20T02:09:47;100026.03;;;14.50;62.52
67740;BME280;54536;50.090;14.420;2023-05-20T02:12:13;100037.44;;;14.51;62.29
67740;BME280;54536;50.090;14.420;2023-05-20T02:14:45;100036.78;;;14.39;63.10
67740;BME280;54536;50.090;14.420;2023-05-20T02:17:12;100035.88;;;14.58;62.11
67740;BME280;54536;50.090;14.420;2023-05-20T02:19:42;100029.38;;;14.52;62.06
67740;BME280;54536;50.090;14.420;2023-05-20T02:22:09;100029.78;;;14.48;62.92
67740;BME280;54536;50.090;14.420;2023-05-20T02:24:35;100032.16;;;14.41;62.49
67740;BME280;54536;50.090;14.420;2023-05-20T02:27:01;100034.09;;;14.49;62.37
67740;BME280;54536;50.090;14.420;2023-05-20T02:29:29;100030.47;;;14.50;62.25
67740;BME280;54536;50.090;14.420;2023-05-20T02:31:55;100034.09;;;14.49;62.93
67740;BME280;54536;50.090;14.420;2023-05-20T02:34:22;100029.38;;;14.43;62.70
67740;BME280;54536;50.090;14.420;2023-05-20T02:36:48;100031.38;;;14.31;63.07
67740;BME280;54536;50.090;14.420;2023-05-20T02:39:14;100025.94;;;14.33;63.14
67740;BME280;54536;50.090;14.420;2023-05-20T02:41:41;100020.94;;;14.29;62.93
67740;BME280;54536;50.090;14.420;2023-05-20T02:44:08;100006.19;;;14.27;63.61
67740;BME280;54536;50.090;14.420;2023-05-20T02:46:34;100010.75;;;14.35;62.85
67740;BME280;54536;50.090;14.420;2023-05-20T02:49:00;100005.31;;;14.36;62.80
67740;BME280;54536;50.090;14.420;2023-05-20T02:51:26;100006.44;;;14.34;63.65
67740;BME280;54536;50.090;14.420;2023-05-20T02:53:53;100012.03;;;14.31;63.82
67740;BME280;54536;50.090;14.420;2023-05-20T02:56:19;100005.53;;;14.15;64.07
67740;BME280;54536;50.090;14.420;2023-05-20T02:58:46;100010.69;;;14.17;63.85
67740;BME280;54536;50.090;14.420;2023-05-20T03:01:13;100011.78;;;14.24;63.64
67740;BME280;54536;50.090;14.420;2023-05-20T03:03:39;100011.59;;;14.25;63.80
67740;BME280;54536;50.090;14.420;2023-05-20T03:06:08;100006.31;;;14.25;63.59
67740;BME280;54536;50.090;14.420;2023-05-20T03:08:34;100006.72;;;14.31;63.17
67740;BME280;54536;50.090;14.420;2023-05-20T03:11:01;100006.00;;;14.38;63.23
67740;BME280;54536;50.090;14.420;2023-05-20T03:13:28;100006.97;;;14.37;63.04
67740;BME280;54536;50.090;14.420;2023-05-20T03:15:54;100008.09;;;14.35;63.24
67740;BME280;54536;50.090;14.420;2023-05-20T03:18:20;100004.09;;;14.31;63.49
67740;BME280;54536;50.090;14.420;2023-05-20T03:20:46;100010.09;;;14.23;63.64
67740;BME280;54536;50.090;14.420;2023-05-20T03:23:13;100011.50;;;14.17;63.96
67740;BME280;54536;50.090;14.420;2023-05-20T03:25:39;100019.16;;;14.20;64.34
67740;BME280;54536;50.090;14.420;2023-05-20T03:28:06;100019.88;;;14.22;63.71
67740;BME280;54536;50.090;14.420;2023-05-20T03:30:32;100022.91;;;14.18;64.51
67740;BME280;54536;50.090;14.420;2023-05-20T03:32:58;100016.50;;;14.20;63.71
67740;BME280;54536;50.090;14.420;2023-05-20T03:35:25;100019.72;;;14.24;64.29
67740;BME280;54536;50.090;14.420;2023-05-20T03:37:51;100018.44;;;14.28;64.16
67740;BME280;54536;50.090;14.420;2023-05-20T03:40:18;100014.59;;;14.13;64.54
67740;BME280;54536;50.090;14.420;2023-05-20T03:42:48;100015.25;;;14.24;64.10
67740;BME280;54536;50.090;14.420;2023-05-20T03:45:15;100017.78;;;14.16;63.94
67740;BME280;54536;50.090;14.420;2023-05-20T03:47:42;100015.84;;;14.09;64.70
67740;BME280;54536;50.090;14.420;2023-05-20T03:50:08;100022.13;;;14.08;64.75
67740;BME280;54536;50.090;14.420;2023-05-20T03:52:35;100031.31;;;14.13;64.19
67740;BME280;54536;50.090;14.420;2023-05-20T03:55:01;100023.78;;;14.09;64.68
67740;BME280;54536;50.090;14.420;2023-05-20T03:57:29;100030.63;;;14.01;64.48
67740;BME280;54536;50.090;14.420;2023-05-20T03:59:56;100030.75;;;14.10;64.95
67740;BME280;54536;50.090;14.420;2023-05-20T04:02:23;100036.31;;;14.16;64.09
67740;BME280;54536;50.090;14.420;2023-05-20T04:04:49;100031.53;;;14.29;63.77
67740;BME280;54536;50.090;14.420;2023-05-20T04:07:18;100028.91;;;14.20;64.62
67740;BME280;54536;50.090;14.420;2023-05-20T04:09:44;100022.63;;;14.21;64.40
67740;BME280;54536;50.090;14.420;2023-05-20T04:12:10;100025.28;;;14.21;63.84
67740;BME280;54536;50.090;14.420;2023-05-20T04:14:39;100024.88;;;14.16;64.23
67740;BME280;54536;50.090;14.420;2023-05-20T04:17:07;100024.00;;;14.25;64.34
67740;BME280;54536;50.090;14.420;2023-05-20T04:19:34;100024.84;;;14.25;64.50
67740;BME280;54536;50.090;14.420;2023-05-20T04:22:01;100028.91;;;14.20;64.39
67740;BME280;54536;50.090;14.420;2023-05-20T04:24:27;100028.06;;;14.29;63.43
67740;BME280;54536;50.090;14.420;2023-05-20T04:26:53;100028.06;;;14.29;64.39
67740;BME280;54536;50.090;14.420;2023-05-20T04:29:20;100026.09;;;14.21;64.67
67740;BME280;54536;50.090;14.420;2023-05-20T04:31:47;100030.00;;;14.27;63.94
67740;BME280;54536;50.090;14.420;2023-05-20T04:34:13;100032.75;;;14.35;64.14
67740;BME280;54536;50.090;14.420;2023-05-20T04:36:40;100032.75;;;14.35;64.24
67740;BME280;54536;50.090;14.420;2023-05-20T04:39:06;100025.94;;;14.33;63.45
67740;BME280;54536;50.090;14.420;2023-05-20T04:41:33;100015.25;;;14.24;64.70
67740;BME280;54536;50.090;14.420;2023-05-20T04:44:01;100009.63;;;14.37;63.96
67740;BME280;54536;50.090;14.420;2023-05-20T04:46:28;100003.34;;;14.38;63.46
67740;BME280;54536;50.090;14.420;2023-05-20T04:48:56;100004.53;;;14.26;64.22
67740;BME280;54536;50.090;14.420;2023-05-20T04:51:23;100012.72;;;14.33;63.86
67740;BME280;54536;50.090;14.420;2023-05-20T04:53:49;100011.69;;;14.43;63.45
67740;BME280;54536;50.090;14.420;2023-05-20T04:56:16;100013.22;;;14.46;64.09
67740;BME280;54536;50.090;14.420;2023-05-20T04:58:42;100011.09;;;14.59;63.37
67740;BME280;54536;50.090;14.420;2023-05-20T05:01:08;100009.81;;;14.63;63.42
67740;BME280;54536;50.090;14.420;2023-05-20T05:03:34;100006.47;;;14.61;62.57
67740;BME280;54536;50.090;14.420;2023-05-20T05:06:01;100018.28;;;14.67;63.12
67740;BME280;54536;50.090;14.420;2023-05-20T05:08:27;100010.06;;;14.70;62.78
67740;BME280;54536;50.090;14.420;2023-05-20T05:10:53;100008.47;;;14.77;62.44
67740;BME280;54536;50.090;14.420;2023-05-20T05:13:19;100005.41;;;14.82;62.43
67740;BME280;54536;50.090;14.420;2023-05-20T05:15:46;100007.28;;;14.71;62.93
67740;BME280;54536;50.090;14.420;2023-05-20T05:18:12;100010.59;;;14.73;62.39
67740;BME280;54536;50.090;14.420;2023-05-20T05:20:38;100008.19;;;14.80;62.71
67740;BME280;54536;50.090;14.420;2023-05-20T05:23:04;100008.66;;;14.75;63.23
67740;BME280;54536;50.090;14.420;2023-05-20T05:25:30;100001.47;;;14.86;62.48
67740;BME280;54536;50.090;14.420;2023-05-20T05:27:57;100003.59;;;15.00;61.70
67740;BME280;54536;50.090;14.420;2023-05-20T05:30:23;100004.13;;;14.86;62.52
67740;BME280;54536;50.090;14.420;2023-05-20T05:32:49;100004.06;;;14.95;62.05
67740;BME280;54536;50.090;14.420;2023-05-20T05:35:16;99992.19;;;14.99;62.32
67740;BME280;54536;50.090;14.420;2023-05-20T05:37:42;99984.25;;;15.17;61.94
67740;BME280;54536;50.090;14.420;2023-05-20T05:40:08;99988.19;;;15.13;62.22
67740;BME280;54536;50.090;14.420;2023-05-20T05:42:35;99990.63;;;15.25;61.69
67740;BME280;54536;50.090;14.420;2023-05-20T05:45:02;99991.22;;;15.18;61.57
67740;BME280;54536;50.090;14.420;2023-05-20T05:47:28;99994.78;;;15.27;61.60
67740;BME280;54536;50.090;14.420;2023-05-20T05:49:58;100001.13;;;15.34;61.08
67740;BME280;54536;50.090;14.420;2023-05-20T05:52:25;99993.41;;;15.41;61.30
67740;BME280;54536;50.090;14.420;2023-05-20T05:54:52;99993.75;;;15.46;60.78
67740;BME280;54536;50.090;14.420;2023-05-20T05:57:18;99994.50;;;15.56;60.31
67740;BME280;54536;50.090;14.420;2023-05-20T05:59:45;99985.59;;;15.57;60.58
67740;BME280;54536;50.090;14.420;2023-05-20T06:02:11;99989.91;;;15.58;60.10
67740;BME280;54536;50.090;14.420;2023-05-20T06:04:39;99976.28;;;15.53;59.66
67740;BME280;54536;50.090;14.420;2023-05-20T06:07:06;99975.81;;;15.58;59.37
67740;BME280;54536;50.090;14.420;2023-05-20T06:09:32;99978.41;;;15.67;59.93
67740;BME280;54536;50.090;14.420;2023-05-20T06:11:58;99984.91;;;15.73;60.26
67740;BME280;54536;50.090;14.420;2023-05-20T06:14:25;99986.25;;;15.77;60.16
67740;BME280;54536;50.090;14.420;2023-05-20T06:16:51;99994.44;;;15.84;59.44
67740;BME280;54536;50.090;14.420;2023-05-20T06:19:17;99985.69;;;15.91;59.86
67740;BME280;54536;50.090;14.420;2023-05-20T06:21:43;99982.59;;;15.96;59.44
67740;BME280;54536;50.090;14.420;2023-05-20T06:24:10;99979.81;;;16.06;59.31
67740;BME280;54536;50.090;14.420;2023-05-20T06:26:36;99969.59;;;16.19;59.10
67740;BME280;54536;50.090;14.420;2023-05-20T06:29:02;99978.91;;;16.23;58.19
67740;BME280;54536;50.090;14.420;2023-05-20T06:31:28;99982.69;;;16.21;58.49
67740;BME280;54536;50.090;14.420;2023-05-20T06:33:55;99983.59;;;16.37;58.33
67740;BME280;54536;50.090;14.420;2023-05-20T06:36:21;99991.63;;;16.46;58.00
67740;BME280;54536;50.090;14.420;2023-05-20T06:38:47;99991.31;;;16.57;57.98
67740;BME280;54536;50.090;14.420;2023-05-20T06:41:14;99991.38;;;16.65;57.69
67740;BME280;54536;50.090;14.420;2023-05-20T06:43:40;99983.66;;;16.88;56.58
67740;BME280;54536;50.090;14.420;2023-05-20T06:46:06;99981.84;;;16.97;56.59
67740;BME280;54536;50.090;14.420;2023-05-20T06:48:32;99975.06;;;17.11;56.32
67740;BME280;54536;50.090;14.420;2023-05-20T06:50:58;99986.22;;;17.30;55.19
67740;BME280;54536;50.090;14.420;2023-05-20T06:53:25;99976.91;;;17.18;56.06
67740;BME280;54536;50.090;14.420;2023-05-20T06:55:52;99975.06;;;17.19;56.07
67740;BME280;54536;50.090;14.420;2023-05-20T06:58:20;99978.41;;;17.37;55.81
67740;BME280;54536;50.090;14.420;2023-05-20T07:00:46;99967.94;;;17.60;54.76
67740;BME280;54536;50.090;14.420;2023-05-20T07:03:13;99971.25;;;17.78;54.09
67740;BME280;54536;50.090;14.420;2023-05-20T07:05:39;99960.28;;;17.73;54.28
67740;BME280;54536;50.090;14.420;2023-05-20T07:08:05;99959.94;;;17.68;54.38
67740;BME280;54536;50.090;14.420;2023-05-20T07:10:31;99953.78;;;17.76;53.94
67740;BME280;54536;50.090;14.420;2023-05-20T07:12:58;99957.81;;;17.80;54.17
67740;BME280;54536;50.090;14.420;2023-05-20T07:15:24;99951.97;;;17.85;53.73
67740;BME280;54536;50.090;14.420;2023-05-20T07:17:50;99948.09;;;18.04;53.15
67740;BME280;54536;50.090;14.420;2023-05-20T07:20:16;99946.41;;;18.19;53.44
67740;BME280;54536;50.090;14.420;2023-05-20T07:22:43;99940.19;;;18.27;53.35
67740;BME280;54536;50.090;14.420;2023-05-20T07:25:09;99937.69;;;18.33;52.56
67740;BME280;54536;50.090;14.420;2023-05-20T07:27:35;99937.31;;;18.44;52.73
67740;BME280;54536;50.090;14.420;2023-05-20T07:30:02;99936.69;;;18.65;52.22
67740;BME280;54536;50.090;14.420;2023-05-20T07:32:28;99945.22;;;18.61;52.01
67740;BME280;54536;50.090;14.420;2023-05-20T07:34:54;99941.66;;;18.68;52.25
67740;BME280;54536;50.090;14.420;2023-05-20T07:37:21;99940.34;;;18.73;52.24
67740;BME280;54536;50.090;14.420;2023-05-20T07:39:47;99928.94;;;18.87;51.57
67740;BME280;54536;50.090;14.420;2023-05-20T07:42:13;99927.38;;;18.92;51.27
67740;BME280;54536;50.090;14.420;2023-05-20T07:44:39;99926.41;;;18.93;51.63
67740;BME280;54536;50.090;14.420;2023-05-20T07:47:06;99920.75;;;18.88;51.26
67740;BME280;54536;50.090;14.420;2023-05-20T07:49:32;99924.84;;;18.99;51.56
67740;BME280;54536;50.090;14.420;2023-05-20T07:51:58;99916.31;;;19.04;51.04
67740;BME280;54536;50.090;14.420;2023-05-20T07:54:25;99916.25;;;19.12;50.63
67740;BME280;54536;50.090;14.420;2023-05-20T07:56:51;99915.88;;;19.15;50.84
67740;BME280;54536;50.090;14.420;2023-05-20T07:59:17;99914.88;;;19.16;50.91
67740;BME280;54536;50.090;14.420;2023-05-20T08:01:44;99913.19;;;19.23;50.87
67740;BME280;54536;50.090;14.420;2023-05-20T08:04:10;99907.88;;;19.38;50.43
67740;BME280;54536;50.090;14.420;2023-05-20T08:06:37;99898.97;;;19.46;50.41
67740;BME280;54536;50.090;14.420;2023-05-20T08:09:04;99903.53;;;19.75;49.23
67740;BME280;54536;50.090;14.420;2023-05-20T08:11:30;99891.22;;;19.88;49.02
67740;BME280;54536;50.090;14.420;2023-05-20T08:13:56;99893.69;;;19.75;49.78
67740;BME280;54536;50.090;14.420;2023-05-20T08:16:23;99889.09;;;19.84;49.60
67740;BME280;54536;50.090;14.420;2023-05-20T08:18:49;99888.81;;;19.79;49.32
67740;BME280;54536;50.090;14.420;2023-05-20T08:21:16;99888.19;;;19.92;49.38
67740;BME280;54536;50.090;14.420;2023-05-20T08:23:42;99886.59;;;20.12;48.67
67740;BME280;54536;50.090;14.420;2023-05-20T08:26:08;99880.47;;;20.33;48.70
67740;BME280;54536;50.090;14.420;2023-05-20T08:28:34;99878.97;;;20.45;48.33
67740;BME280;54536;50.090;14.420;2023-05-20T08:31:03;99877.56;;;20.49;47.89
67740;BME280;54536;50.090;14.420;2023-05-20T08:33:29;99885.69;;;20.56;47.85
67740;BME280;54536;50.090;14.420;2023-05-20T08:35:55;99881.56;;;20.75;47.13
67740;BME280;54536;50.090;14.420;2023-05-20T08:38:21;99884.22;;;20.90;47.18
67740;BME280;54536;50.090;14.420;2023-05-20T08:40:53;99878.53;;;20.99;46.83
67740;BME280;54536;50.090;14.420;2023-05-20T08:43:21;99877.34;;;21.09;46.91
67740;BME280;54536;50.090;14.420;2023-05-20T08:45:48;99869.97;;;21.11;46.83
67740;BME280;54536;50.090;14.420;2023-05-20T08:48:17;99873.09;;;21.14;46.73
67740;BME280;54536;50.090;14.420;2023-05-20T08:50:50;99867.03;;;21.05;46.98
67740;BME280;54536;50.090;14.420;2023-05-20T08:53:17;99867.03;;;21.05;46.98
67740;BME280;54536;50.090;14.420;2023-05-20T08:55:55;99856.28;;;21.20;46.60
67740;BME280;54536;50.090;14.420;2023-05-20T08:58:24;99859.72;;;21.36;46.88
67740;BME280;54536;50.090;14.420;2023-05-20T09:00:51;99857.22;;;21.62;45.91
67740;BME280;54536;50.090;14.420;2023-05-20T09:03:18;99856.22;;;21.70;45.98
67740;BME280;54536;50.090;14.420;2023-05-20T09:05:49;99853.16;;;21.73;45.96
67740;BME280;54536;50.090;14.420;2023-05-20T09:08:15;99855.09;;;21.86;45.46
67740;BME280;54536;50.090;14.420;2023-05-20T09:10:41;99856.13;;;21.85;45.51
67740;BME280;54536;50.090;14.420;2023-05-20T09:13:10;99846.00;;;21.87;45.41
67740;BME280;54536;50.090;14.420;2023-05-20T09:15:37;99855.25;;;21.84;45.53
67740;BME280;54536;50.090;14.420;2023-05-20T09:18:06;99854.78;;;22.09;45.25
67740;BME280;54536;50.090;14.420;2023-05-20T09:20:36;99847.16;;;22.12;45.08
67740;BME280;54536;50.090;14.420;2023-05-20T09:23:08;99848.38;;;22.10;45.59
67740;BME280;54536;50.090;14.420;2023-05-20T09:25:36;99847.22;;;22.19;45.16
67740;BME280;54536;50.090;14.420;2023-05-20T09:28:08;99841.72;;;22.34;45.08
67740;BME280;54536;50.090;14.420;2023-05-20T09:30:37;99852.44;;;22.40;45.20
67740;BME280;54536;50.090;14.420;2023-05-20T09:33:04;99845.03;;;22.49;44.65
67740;BME280;54536;50.090;14.420;2023-05-20T09:35:34;99842.38;;;22.62;44.86
67740;BME280;54536;50.090;14.420;2023-05-20T09:38:05;99845.28;;;22.74;44.73
67740;BME280;54536;50.090;14.420;2023-05-20T09:40:34;99838.31;;;22.86;44.46
67740;BME280;54536;50.090;14.420;2023-05-20T09:43:05;99838.94;;;22.95;44.27
67740;BME280;54536;50.090;14.420;2023-05-20T09:45:37;99828.59;;;22.92;44.35
67740;BME280;54536;50.090;14.420;2023-05-20T09:48:04;99832.75;;;22.95;44.44
67740;BME280;54536;50.090;14.420;2023-05-20T09:50:34;99832.31;;;22.84;44.34
67740;BME280;54536;50.090;14.420;2023-05-20T09:53:02;99828.59;;;22.85;44.70
67740;BME280;54536;50.090;14.420;2023-05-20T09:55:30;99822.63;;;22.83;44.86
67740;BME280;54536;50.090;14.420;2023-05-20T09:58:01;99822.41;;;22.78;45.38
67740;BME280;54536;50.090;14.420;2023-05-20T10:00:28;99812.09;;;22.82;45.26
67740;BME280;54536;50.090;14.420;2023-05-20T10:02:56;99808.81;;;22.86;45.07
67740;BME280;54536;50.090;14.420;2023-05-20T10:05:28;99811.50;;;23.06;44.46
67740;BME280;54536;50.090;14.420;2023-05-20T10:11:06;99801.38;;;23.28;44.12
67740;BME280;54536;50.090;14.420;2023-05-20T10:14:06;99794.09;;;23.49;44.00
67740;BME280;54536;50.090;14.420;2023-05-20T10:22:06;99794.13;;;23.35;44.38
67740;BME280;54536;50.090;14.420;2023-05-20T10:24:39;99787.06;;;23.54;43.60
67740;BME280;54536;50.090;14.420;2023-05-20T10:27:12;99788.09;;;23.47;44.19
67740;BME280;54536;50.090;14.420;2023-05-20T10:32:09;99780.44;;;23.57;43.50
67740;BME280;54536;50.090;14.420;2023-05-20T10:34:47;99778.41;;;23.52;43.87
67740;BME280;54536;50.090;14.420;2023-05-20T10:37:26;99774.03;;;23.65;43.68
67740;BME280;54536;50.090;14.420;2023-05-20T10:40:05;99774.44;;;23.68;43.53
67740;BME280;54536;50.090;14.420;2023-05-20T10:42:32;99773.44;;;23.56;43.86
67740;BME280;54536;50.090;14.420;2023-05-20T10:44:58;99772.97;;;23.72;43.82
67740;BME280;54536;50.090;14.420;2023-05-20T10:47:25;99768.34;;;23.93;43.71
67740;BME280;54536;50.090;14.420;2023-05-20T10:49:51;99758.81;;;24.03;43.16
67740;BME280;54536;50.090;14.420;2023-05-20T10:52:18;99763.28;;;24.10;43.21
67740;BME280;54536;50.090;14.420;2023-05-20T10:54:57;99755.75;;;24.25;42.72
67740;BME280;54536;50.090;14.420;2023-05-20T10:57:28;99743.91;;;24.33;42.54
67740;BME280;54536;50.090;14.420;2023-05-20T10:59:55;99739.78;;;24.37;42.55
67740;BME280;54536;50.090;14.420;2023-05-20T11:02:22;99738.47;;;24.52;42.40
67740;BME280;54536;50.090;14.420;2023-05-20T11:04:52;99737.13;;;24.62;42.30
67740;BME280;54536;50.090;14.420;2023-05-20T11:07:28;99740.06;;;24.79;41.59
67740;BME280;54536;50.090;14.420;2023-05-20T11:09:55;99726.13;;;24.88;41.52
67740;BME280;54536;50.090;14.420;2023-05-20T11:12:26;99717.94;;;25.02;41.56
67740;BME280;54536;50.090;14.420;2023-05-20T11:14:52;99734.47;;;25.05;41.70
67740;BME280;54536;50.090;14.420;2023-05-20T11:17:19;99722.19;;;25.09;41.33
67740;BME280;54536;50.090;14.420;2023-05-20T11:19:46;99717.97;;;25.20;41.17
67740;BME280;54536;50.090;14.420;2023-05-20T11:22:13;99715.00;;;25.28;41.39
67740;BME280;54536;50.090;14.420;2023-05-20T11:24:39;99716.41;;;25.31;40.97
67740;BME280;54536;50.090;14.420;2023-05-20T11:27:06;99723.38;;;25.38;40.88
67740;BME280;54536;50.090;14.420;2023-05-20T11:29:32;99714.75;;;25.30;41.26
67740;BME280;54536;50.090;14.420;2023-05-20T11:31:59;99708.59;;;25.04;41.29
67740;BME280;54536;50.090;14.420;2023-05-20T11:34:35;99711.34;;;24.97;41.18
67740;BME280;54536;50.090;14.420;2023-05-20T11:37:06;99705.75;;;24.99;41.51
67740;BME280;54536;50.090;14.420;2023-05-20T11:39:32;99708.72;;;25.16;41.49
67740;BME280;54536;50.090;14.420;2023-05-20T11:41:59;99701.72;;;25.08;41.64
67740;BME280;54536;50.090;14.420;2023-05-20T11:44:25;99700.25;;;25.31;40.99
67740;BME280;54536;50.090;14.420;2023-05-20T11:47:02;99693.16;;;25.36;41.04
67740;BME280;54536;50.090;14.420;2023-05-20T11:49:28;99695.22;;;25.53;40.90
67740;BME280;54536;50.090;14.420;2023-05-20T11:51:55;99690.72;;;25.65;40.07
67740;BME280;54536;50.090;14.420;2023-05-20T11:54:22;99689.09;;;25.64;40.18
67740;BME280;54536;50.090;14.420;2023-05-20T11:56:49;99686.78;;;25.98;39.69
67740;BME280;54536;50.090;14.420;2023-05-20T11:59:15;99682.63;;;26.37;38.79
67740;BME280;54536;50.090;14.420;2023-05-20T12:01:42;99679.50;;;26.87;37.46
67740;BME280;54536;50.090;14.420;2023-05-20T12:04:08;99678.28;;;27.42;36.30
67740;BME280;54536;50.090;14.420;2023-05-20T12:06:35;99670.00;;;27.89;35.53
67740;BME280;54536;50.090;14.420;2023-05-20T12:09:06;99673.53;;;28.52;34.63
67740;BME280;54536;50.090;14.420;2023-05-20T12:11:34;99667.38;;;28.39;35.13
67740;BME280;54536;50.090;14.420;2023-05-20T12:14:01;99679.25;;;29.11;34.17
67740;BME280;54536;50.090;14.420;2023-05-20T12:16:30;99667.44;;;28.61;34.11
67740;BME280;54536;50.090;14.420;2023-05-20T12:18:56;99675.44;;;28.73;34.25
67740;BME280;54536;50.090;14.420;2023-05-20T12:21:22;99666.50;;;28.22;34.69
67740;BME280;54536;50.090;14.420;2023-05-20T12:23:49;99667.69;;;28.43;34.81
67740;BME280;54536;50.090;14.420;2023-05-20T12:26:15;99668.16;;;29.34;33.31
67740;BME280;54536;50.090;14.420;2023-05-20T12:28:42;99660.22;;;30.04;31.39
67740;BME280;54536;50.090;14.420;2023-05-20T12:31:08;99658.63;;;30.08;31.75
67740;BME280;54536;50.090;14.420;2023-05-20T12:33:35;99664.72;;;30.52;30.66
67740;BME280;54536;50.090;14.420;2023-05-20T12:36:01;99656.44;;;30.74;30.39
67740;BME280;54536;50.090;14.420;2023-05-20T12:38:27;99663.78;;;30.74;29.89
67740;BME280;54536;50.090;14.420;2023-05-20T12:40:54;99660.75;;;30.01;31.47
67740;BME280;54536;50.090;14.420;2023-05-20T12:43:20;99648.47;;;30.58;31.56
67740;BME280;54536;50.090;14.420;2023-05-20T12:45:46;99640.78;;;31.44;29.52
67740;BME280;54536;50.090;14.420;2023-05-20T12:48:12;99640.88;;;31.85;28.99
67740;BME280;54536;50.090;14.420;2023-05-20T12:50:39;99643.63;;;32.16;29.12
67740;BME280;54536;50.090;14.420;2023-05-20T12:53:05;99639.28;;;32.15;28.65
67740;BME280;54536;50.090;14.420;2023-05-20T12:55:31;99647.16;;;32.52;27.69
67740;BME280;54536;50.090;14.420;2023-05-20T12:57:57;99638.44;;;32.50;27.44